createdAt,value
2022-11-10T00:00:25.616Z,19.35
2022-11-10T00:03:13.998Z,19.32
2022-11-10T00:06:04.505Z,19.08
2022-11-10T00:08:51.989Z,18.62
2022-11-10T00:11:40.199Z,18.90
2022-11-10T00:14:46.683Z,18.75
2022-11-10T00:17:34.173Z,18.76
2022-11-10T00:20:21.959Z,18.58
2022-11-10T00:23:09.820Z,18.56
2022-11-10T00:25:57.041Z,18.92
2022-11-10T00:28:45.030Z,18.91
2022-11-10T00:31:32.335Z,18.85
2022-11-10T00:34:19.924Z,18.70
2022-11-10T00:37:07.239Z,18.56
2022-11-10T00:39:54.822Z,18.78
2022-11-10T00:42:42.428Z,18.76
2022-11-10T00:45:30.219Z,18.76
2022-11-10T00:48:17.215Z,18.77
2022-11-10T00:51:05.328Z,18.76
2022-11-10T00:53:53.761Z,18.83
2022-11-10T00:56:41.031Z,18.72
2022-11-10T00:59:28.271Z,18.78
2022-11-10T01:02:19.991Z,18.82
2022-11-10T01:05:10.759Z,18.94
2022-11-10T01:08:05.800Z,18.97
2022-11-10T01:11:03.248Z,18.70
2022-11-10T01:13:57.658Z,18.98
2022-11-10T01:16:47.155Z,18.69
2022-11-10T01:19:35.997Z,18.72
2022-11-10T01:22:24.393Z,18.72
2022-11-10T01:25:12.515Z,18.88
2022-11-10T01:28:00.287Z,18.77
2022-11-10T01:30:49.259Z,18.80
2022-11-10T01:33:37.829Z,18.95
2022-11-10T01:36:26.501Z,18.82
2022-11-10T01:39:14.987Z,18.76
2022-11-10T01:42:03.142Z,18.79
2022-11-10T01:45:24.500Z,18.89
2022-11-10T01:48:18.486Z,18.79
2022-11-10T01:51:25.801Z,18.95
2022-11-10T01:54:20.813Z,18.81
2022-11-10T01:57:12.952Z,18.81
2022-11-10T02:00:01.614Z,18.69
2022-11-10T02:03:19.679Z,18.76
2022-11-10T02:06:10.030Z,18.67
2022-11-10T02:09:00.933Z,18.81
2022-11-10T02:11:53.470Z,18.74
2022-11-10T02:14:41.800Z,18.95
2022-11-10T02:17:29.835Z,19.08
2022-11-10T02:20:21.062Z,19.17
2022-11-10T02:23:36.127Z,18.99
2022-11-10T02:26:32.252Z,19.32
2022-11-10T02:29:21.029Z,19.08
2022-11-10T02:32:09.395Z,19.13
2022-11-10T02:34:57.483Z,19.37
2022-11-10T02:37:45.706Z,19.29
2022-11-10T02:40:33.593Z,19.47
2022-11-10T02:43:22.424Z,19.37
2022-11-10T02:46:10.512Z,19.63
2022-11-10T02:48:59.381Z,19.75
2022-11-10T02:51:47.667Z,19.55
2022-11-10T02:54:36.432Z,19.45
2022-11-10T02:57:24.693Z,19.43
2022-11-10T03:00:13.596Z,19.46
2022-11-10T03:03:03.678Z,19.68
2022-11-10T03:05:52.039Z,19.59
2022-11-10T03:08:41.047Z,19.80
2022-11-10T03:11:32.267Z,19.71
2022-11-10T03:14:20.887Z,20.02
2022-11-10T03:17:09.712Z,20.04
2022-11-10T03:19:58.127Z,20.44
2022-11-10T03:22:46.930Z,20.20
2022-11-10T03:25:36.504Z,20.42
2022-11-10T03:28:24.887Z,20.64
2022-11-10T03:31:13.186Z,20.76
2022-11-10T03:34:01.685Z,20.77
2022-11-10T03:36:49.889Z,20.83
2022-11-10T03:39:38.403Z,20.92
2022-11-10T03:42:26.960Z,21.24
2022-11-10T03:45:16.894Z,21.31
2022-11-10T03:48:05.342Z,21.45
2022-11-10T03:50:53.632Z,21.47
2022-11-10T03:53:41.701Z,21.49
2022-11-10T03:56:30.343Z,21.65
2022-11-10T03:59:18.552Z,21.71
2022-11-10T04:02:09.062Z,21.48
2022-11-10T04:05:15.582Z,21.33
2022-11-10T04:08:21.923Z,21.73
2022-11-10T04:11:10.811Z,21.82
2022-11-10T04:14:16.932Z,21.93
2022-11-10T04:17:06.111Z,21.88
2022-11-10T04:19:53.946Z,21.82
2022-11-10T04:23:00.605Z,22.12
2022-11-10T04:26:08.158Z,22.42
2022-11-10T04:28:59.079Z,22.50
2022-11-10T04:31:47.944Z,22.60
2022-11-10T04:34:36.518Z,22.69
2022-11-10T04:37:24.853Z,22.68
2022-11-10T04:40:16.196Z,22.90
2022-11-10T04:43:03.876Z,22.75
2022-11-10T04:45:52.362Z,23.05
2022-11-10T04:48:45.295Z,23.29
2022-11-10T04:51:36.296Z,23.39
2022-11-10T04:54:24.683Z,23.63
2022-11-10T04:57:13.524Z,23.76
2022-11-10T05:00:02.300Z,23.75
2022-11-10T05:02:50.324Z,23.87
2022-11-10T05:05:38.564Z,24.08
2022-11-10T05:08:26.523Z,23.93
2022-11-10T05:11:15.795Z,24.05
2022-11-10T05:14:03.590Z,24.31
2022-11-10T05:16:51.190Z,24.14
2022-11-10T05:19:39.535Z,24.37
2022-11-10T05:22:28.123Z,24.31
2022-11-10T05:25:16.058Z,24.37
2022-11-10T05:28:05.262Z,24.57
2022-11-10T05:30:54.300Z,24.47
2022-11-10T05:33:42.750Z,24.89
2022-11-10T05:36:30.993Z,24.88
2022-11-10T05:39:19.280Z,24.94
2022-11-10T05:42:07.736Z,25.02
2022-11-10T05:44:55.857Z,25.07
2022-11-10T05:47:44.989Z,25.09
2022-11-10T05:50:33.007Z,25.38
2022-11-10T05:53:22.272Z,25.43
2022-11-10T05:56:10.658Z,25.38
2022-11-10T05:58:59.445Z,25.62
2022-11-10T06:01:48.769Z,25.50
2022-11-10T06:04:36.763Z,25.44
2022-11-10T06:07:24.627Z,25.68
2022-11-10T06:10:12.851Z,25.82
2022-11-10T06:13:01.086Z,25.92
2022-11-10T06:15:50.709Z,25.99
2022-11-10T06:18:39.802Z,25.94
2022-11-10T06:21:28.796Z,26.10
2022-11-10T06:24:17.061Z,26.13
2022-11-10T06:27:05.093Z,26.14
2022-11-10T06:29:53.426Z,26.35
2022-11-10T06:32:46.074Z,26.51
2022-11-10T06:35:38.199Z,26.21
2022-11-10T06:38:26.755Z,26.39
2022-11-10T06:41:15.130Z,26.59
2022-11-10T06:44:03.554Z,26.58
2022-11-10T06:46:51.892Z,26.70
2022-11-10T06:49:43.020Z,26.70
2022-11-10T06:52:32.831Z,26.83
2022-11-10T06:55:20.799Z,26.75
2022-11-10T06:58:08.642Z,26.78
2022-11-10T07:00:56.660Z,26.78
2022-11-10T07:04:05.098Z,26.87
2022-11-10T07:06:52.031Z,26.87
2022-11-10T07:09:39.932Z,27.07
2022-11-10T07:12:27.726Z,27.02
2022-11-10T07:15:15.921Z,27.03
2022-11-10T07:18:04.908Z,27.21
2022-11-10T07:20:52.332Z,26.97
2022-11-10T07:23:40.236Z,27.15
2022-11-10T07:26:28.493Z,27.10
2022-11-10T07:29:16.004Z,27.18
2022-11-10T07:32:03.794Z,27.18
2022-11-10T07:34:51.565Z,27.14
2022-11-10T07:37:38.954Z,27.14
2022-11-10T07:40:27.106Z,27.22
2022-11-10T07:43:15.864Z,27.44
2022-11-10T07:46:04.409Z,27.40
2022-11-10T07:48:51.783Z,27.33
2022-11-10T07:51:45.037Z,27.12
2022-11-10T07:54:32.854Z,27.30
2022-11-10T07:57:21.022Z,27.17
2022-11-10T08:00:08.926Z,27.24
2022-11-10T08:03:02.504Z,27.43
2022-11-10T08:05:50.494Z,27.48
2022-11-10T08:08:38.838Z,27.51
2022-11-10T08:11:26.227Z,27.45
2022-11-10T08:14:14.110Z,27.48
2022-11-10T08:17:01.970Z,27.46
2022-11-10T08:19:49.788Z,27.44
2022-11-10T08:22:37.381Z,27.37
2022-11-10T08:25:26.380Z,27.43
2022-11-10T08:28:24.605Z,27.62
2022-11-10T08:31:12.227Z,27.33
2022-11-10T08:33:59.963Z,27.54
2022-11-10T08:36:47.541Z,27.49
2022-11-10T08:39:39.550Z,27.55
2022-11-10T08:42:28.366Z,27.31
2022-11-10T08:45:17.029Z,27.51
2022-11-10T08:48:08.539Z,27.62
2022-11-10T08:50:55.904Z,27.44
2022-11-10T08:53:43.780Z,27.43
2022-11-10T08:56:32.387Z,27.42
2022-11-10T08:59:19.721Z,27.46
2022-11-10T09:02:07.893Z,27.39
2022-11-10T09:04:55.390Z,27.29
2022-11-10T09:07:48.507Z,27.35
2022-11-10T09:10:39.087Z,27.48
2022-11-10T09:13:30.285Z,27.39
2022-11-10T09:16:18.397Z,27.48
2022-11-10T09:19:06.347Z,27.48
2022-11-10T09:21:54.438Z,27.23
2022-11-10T09:24:43.191Z,27.40
2022-11-10T09:27:31.416Z,27.56
2022-11-10T09:30:19.747Z,27.50
2022-11-10T09:33:07.393Z,27.52
2022-11-10T09:36:02.921Z,27.59
2022-11-10T09:38:50.532Z,27.22
2022-11-10T09:41:42.665Z,27.60
2022-11-10T09:44:30.365Z,27.43
2022-11-10T09:47:50.581Z,27.55
2022-11-10T09:50:50.233Z,27.51
2022-11-10T09:54:00.266Z,27.54
2022-11-10T09:56:48.458Z,27.41
2022-11-10T09:59:38.250Z,27.35
2022-11-10T10:02:41.208Z,27.54
2022-11-10T10:05:38.455Z,27.55
2022-11-10T10:08:32.784Z,27.51
2022-11-10T10:11:41.126Z,27.43
2022-11-10T10:14:42.346Z,27.10
2022-11-10T10:17:40.812Z,27.20
2022-11-10T10:20:38.086Z,27.35
2022-11-10T10:24:07.162Z,27.22
2022-11-10T10:26:46.923Z,27.00
2022-11-10T10:29:56.788Z,27.24
2022-11-10T10:32:45.315Z,27.11
2022-11-10T10:35:40.570Z,27.18
2022-11-10T10:38:37.882Z,27.25
2022-11-10T10:41:28.508Z,27.20
2022-11-10T10:44:19.512Z,27.04
2022-11-10T10:47:09.993Z,27.05
2022-11-10T10:50:31.671Z,27.22
2022-11-10T10:53:26.366Z,26.85
2022-11-10T10:56:25.986Z,27.08
2022-11-10T10:59:22.923Z,27.17
2022-11-10T11:02:32.228Z,27.04
2022-11-10T11:05:24.270Z,26.89
2022-11-10T11:08:20.707Z,26.95
2022-11-10T11:11:10.660Z,26.83
2022-11-10T11:14:19.723Z,26.93
2022-11-10T11:17:22.681Z,26.78
2022-11-10T11:20:16.686Z,26.66
2022-11-10T11:23:36.349Z,26.74
2022-11-10T11:27:01.795Z,26.73
2022-11-10T11:30:30.211Z,26.66
2022-11-10T11:33:22.837Z,26.58
2022-11-10T11:36:19.449Z,26.44
2022-11-10T11:39:25.425Z,26.54
2022-11-10T11:42:27.704Z,26.35
2022-11-10T11:45:45.191Z,26.41
2022-11-10T11:48:55.045Z,26.17
2022-11-10T11:52:00.270Z,26.16
2022-11-10T11:55:17.082Z,26.09
2022-11-10T11:58:45.399Z,26.18
2022-11-10T12:01:41.915Z,26.06
2022-11-10T12:04:40.259Z,25.98
2022-11-10T12:07:51.849Z,25.95
2022-11-10T12:10:43.246Z,25.77
2022-11-10T12:13:46.360Z,25.79
2022-11-10T12:16:36.572Z,25.71
2022-11-10T12:19:33.172Z,25.58
2022-11-10T12:22:49.054Z,25.59
2022-11-10T12:25:45.922Z,25.55
2022-11-10T12:28:40.358Z,25.42
2022-11-10T12:31:31.552Z,25.42
2022-11-10T12:34:40.059Z,25.48
2022-11-10T12:37:37.289Z,25.35
2022-11-10T12:40:29.516Z,25.32
2022-11-10T12:43:46.123Z,25.33
2022-11-10T12:46:33.561Z,25.15
2022-11-10T12:49:32.878Z,25.18
2022-11-10T12:52:34.947Z,25.18
2022-11-10T12:55:33.751Z,25.16
2022-11-10T12:58:22.212Z,25.04
2022-11-10T13:01:19.821Z,25.04
2022-11-10T13:04:17.656Z,25.03
2022-11-10T13:07:12.907Z,24.92
2022-11-10T13:10:21.441Z,24.94
2022-11-10T13:13:21.343Z,24.87
2022-11-10T13:16:14.465Z,24.76
2022-11-10T13:19:03.429Z,24.82
2022-11-10T13:22:38.618Z,24.82
2022-11-10T13:25:39.273Z,24.75
2022-11-10T13:28:56.636Z,24.76
2022-11-10T13:31:53.276Z,24.66
2022-11-10T13:34:45.566Z,24.62
2022-11-10T13:37:44.311Z,24.54
2022-11-10T13:40:39.244Z,24.58
2022-11-10T13:43:37.864Z,24.52
2022-11-10T13:46:39.642Z,24.58
2022-11-10T13:49:40.912Z,24.50
2022-11-10T13:52:50.650Z,24.43
2022-11-10T13:55:54.801Z,24.43
2022-11-10T13:58:49.696Z,24.37
2022-11-10T14:01:42.270Z,24.24
2022-11-10T14:04:46.219Z,24.34
2022-11-10T14:07:48.040Z,24.37
2022-11-10T14:11:14.992Z,24.33
2022-11-10T14:14:13.834Z,24.25
2022-11-10T14:17:15.772Z,24.16
2022-11-10T14:20:05.128Z,24.15
2022-11-10T14:22:56.799Z,24.14
2022-11-10T14:25:46.004Z,24.28
2022-11-10T14:28:38.707Z,24.12
2022-11-10T14:31:30.333Z,24.13
2022-11-10T14:34:25.859Z,24.11
2022-11-10T14:37:38.577Z,24.08
2022-11-10T14:40:30.308Z,24.04
2022-11-10T14:43:41.178Z,24.10
2022-11-10T14:46:28.827Z,24.03
2022-11-10T14:49:30.872Z,24.13
2022-11-10T14:52:26.031Z,24.01
2022-11-10T14:55:34.471Z,24.09
2022-11-10T14:58:37.590Z,24.13
2022-11-10T15:01:42.831Z,24.10
2022-11-10T15:04:34.453Z,23.92
2022-11-10T15:07:28.955Z,23.86
2022-11-10T15:10:45.466Z,23.92
2022-11-10T15:13:35.628Z,23.78
2022-11-10T15:16:37.551Z,23.74
2022-11-10T15:19:51.963Z,23.76
2022-11-10T15:22:43.714Z,23.66
2022-11-10T15:25:38.464Z,23.75
2022-11-10T15:28:33.896Z,23.74
2022-11-10T15:31:31.423Z,23.73
2022-11-10T15:34:43.292Z,23.76
2022-11-10T15:37:35.092Z,23.66
2022-11-10T15:40:37.778Z,23.71
2022-11-10T15:43:28.425Z,23.56
2022-11-10T15:46:21.417Z,23.56
2022-11-10T15:49:27.370Z,23.61
2022-11-10T15:52:22.166Z,23.36
2022-11-10T15:55:25.483Z,23.30
2022-11-10T15:58:24.538Z,23.39
2022-11-10T16:01:14.438Z,23.32
2022-11-10T16:04:12.203Z,23.31
2022-11-10T16:07:22.241Z,23.27
2022-11-10T16:10:15.510Z,23.21
2022-11-10T16:13:05.087Z,23.19
2022-11-10T16:15:53.444Z,23.08
2022-11-10T16:18:53.263Z,23.13
2022-11-10T16:21:41.131Z,23.10
2022-11-10T16:24:29.060Z,23.11
2022-11-10T16:27:20.379Z,23.11
2022-11-10T16:30:20.935Z,23.26
2022-11-10T16:33:16.286Z,23.09
2022-11-10T16:36:09.842Z,23.10
2022-11-10T16:39:03.293Z,23.16
2022-11-10T16:41:53.013Z,23.16
2022-11-10T16:44:44.318Z,23.11
2022-11-10T16:47:36.798Z,23.16
2022-11-10T16:50:41.514Z,23.20
2022-11-10T16:53:33.450Z,23.17
2022-11-10T16:56:25.621Z,23.13
2022-11-10T16:59:26.225Z,23.07
2022-11-10T17:02:27.531Z,23.12
2022-11-10T17:05:22.343Z,23.01
2022-11-10T17:08:24.639Z,23.08
2022-11-10T17:11:19.453Z,22.99
2022-11-10T17:14:14.646Z,22.94
2022-11-10T17:17:14.339Z,23.01
2022-11-10T17:20:05.306Z,22.91
2022-11-10T17:22:54.969Z,22.83
2022-11-10T17:25:48.128Z,22.85
2022-11-10T17:28:38.903Z,22.77
2022-11-10T17:31:31.053Z,22.68
2022-11-10T17:34:38.803Z,22.70
2022-11-10T17:37:34.376Z,22.65
2022-11-10T17:40:27.842Z,22.74
2022-11-10T17:43:23.502Z,22.56
2022-11-10T17:46:11.602Z,22.49
2022-11-10T17:49:03.232Z,22.43
2022-11-10T17:51:56.410Z,22.42
2022-11-10T17:54:49.113Z,22.38
2022-11-10T17:57:38.733Z,22.19
2022-11-10T18:00:27.585Z,22.24
2022-11-10T18:03:22.667Z,22.27
2022-11-10T18:06:27.457Z,22.30
2022-11-10T18:09:16.795Z,22.13
2022-11-10T18:12:04.914Z,22.13
2022-11-10T18:14:55.099Z,22.15
2022-11-10T18:17:56.162Z,22.12
2022-11-10T18:20:47.658Z,21.97
2022-11-10T18:23:40.505Z,21.88
2022-11-10T18:26:30.884Z,21.84
2022-11-10T18:29:24.433Z,21.87
2022-11-10T18:32:15.559Z,21.90
2022-11-10T18:35:16.602Z,21.92
2022-11-10T18:38:11.285Z,21.87
2022-11-10T18:41:22.337Z,21.79
2022-11-10T18:44:27.469Z,21.82
2022-11-10T18:47:16.233Z,21.79
2022-11-10T18:50:10.022Z,21.76
2022-11-10T18:52:58.788Z,21.71
2022-11-10T18:55:57.238Z,21.78
2022-11-10T18:58:44.648Z,21.67
2022-11-10T19:01:36.513Z,21.69
2022-11-10T19:04:27.205Z,21.67
2022-11-10T19:07:15.510Z,21.61
2022-11-10T19:10:05.177Z,21.59
2022-11-10T19:12:54.354Z,21.55
2022-11-10T19:15:43.343Z,21.60
2022-11-10T19:18:31.929Z,21.51
2022-11-10T19:21:22.369Z,21.54
2022-11-10T19:24:10.390Z,21.45
2022-11-10T19:26:58.016Z,21.43
2022-11-10T19:29:45.969Z,21.38
2022-11-10T19:32:33.597Z,21.34
2022-11-10T19:35:24.618Z,21.25
2022-11-10T19:38:12.160Z,21.19
2022-11-10T19:41:00.703Z,21.13
2022-11-10T19:43:48.094Z,21.10
2022-11-10T19:46:38.227Z,21.04
2022-11-10T19:49:26.090Z,21.10
2022-11-10T19:52:13.315Z,21.06
2022-11-10T19:55:00.542Z,21.00
2022-11-10T19:57:48.004Z,21.01
2022-11-10T20:00:35.627Z,21.06
2022-11-10T20:03:25.414Z,21.02
2022-11-10T20:06:21.052Z,21.08
2022-11-10T20:09:08.863Z,20.94
2022-11-10T20:11:56.444Z,20.90
2022-11-10T20:14:44.071Z,20.86
2022-11-10T20:17:31.790Z,20.87
2022-11-10T20:20:19.910Z,20.86
2022-11-10T20:23:10.055Z,20.90
2022-11-10T20:26:10.478Z,20.89
2022-11-10T20:28:57.848Z,20.82
2022-11-10T20:31:45.770Z,20.83
2022-11-10T20:34:33.442Z,20.79
2022-11-10T20:37:21.321Z,20.79
2022-11-10T20:40:37.787Z,20.76
2022-11-10T20:43:17.165Z,20.78
2022-11-10T20:46:05.034Z,20.75
2022-11-10T20:48:52.647Z,20.76
2022-11-10T20:51:41.294Z,20.71
2022-11-10T20:54:29.024Z,20.77
2022-11-10T20:57:16.548Z,20.67
2022-11-10T21:00:04.321Z,20.57
2022-11-10T21:02:51.369Z,20.53
2022-11-10T21:05:39.544Z,20.52
2022-11-10T21:08:26.788Z,20.51
2022-11-10T21:11:34.013Z,20.47
2022-11-10T21:14:21.354Z,20.48
2022-11-10T21:17:09.026Z,20.45
2022-11-10T21:19:56.765Z,20.42
2022-11-10T21:22:44.348Z,20.41
2022-11-10T21:25:32.276Z,20.38
2022-11-10T21:28:20.173Z,20.40
2022-11-10T21:31:07.887Z,20.18
2022-11-10T21:33:59.314Z,20.06
2022-11-10T21:36:46.881Z,20.11
2022-11-10T21:39:34.607Z,20.17
2022-11-10T21:42:24.439Z,19.93
2022-11-10T21:45:13.245Z,19.94
2022-11-10T21:48:02.461Z,20.07
2022-11-10T21:50:50.099Z,20.08
2022-11-10T21:53:40.247Z,20.07
2022-11-10T21:56:27.586Z,20.13
2022-11-10T21:59:15.307Z,20.15
2022-11-10T22:02:02.950Z,20.19
2022-11-10T22:04:50.502Z,20.20
2022-11-10T22:07:39.817Z,20.23
2022-11-10T22:10:45.394Z,20.25
2022-11-10T22:13:50.914Z,20.18
2022-11-10T22:17:08.261Z,20.26
2022-11-10T22:19:55.946Z,20.12
2022-11-10T22:22:43.506Z,20.13
2022-11-10T22:25:30.776Z,20.09
2022-11-10T22:28:21.340Z,20.13
2022-11-10T22:31:11.866Z,20.12
2022-11-10T22:33:59.169Z,20.09
2022-11-10T22:36:47.498Z,20.17
2022-11-10T22:39:53.854Z,20.08
2022-11-10T22:42:59.899Z,20.11
2022-11-10T22:45:47.555Z,20.02
2022-11-10T22:48:35.193Z,20.10
2022-11-10T22:51:22.963Z,20.11
2022-11-10T22:54:16.293Z,20.16
2022-11-10T22:57:04.056Z,20.04
2022-11-10T22:59:51.418Z,20.03
2022-11-10T23:02:39.017Z,20.04
2022-11-10T23:05:26.503Z,19.98
2022-11-10T23:08:14.154Z,19.95
2022-11-10T23:11:11.824Z,20.02
2022-11-10T23:13:59.819Z,19.88
2022-11-10T23:16:46.834Z,19.84
2022-11-10T23:19:34.421Z,19.79
2022-11-10T23:22:21.434Z,19.80
2022-11-10T23:25:09.579Z,19.79
2022-11-10T23:27:58.136Z,19.77
2022-11-10T23:30:45.494Z,19.69
2022-11-10T23:33:33.336Z,19.70
2022-11-10T23:36:23.092Z,19.65
2022-11-10T23:39:10.748Z,19.64
2022-11-10T23:41:58.583Z,19.60
2022-11-10T23:44:46.104Z,19.65
2022-11-10T23:47:33.979Z,19.62
2022-11-10T23:50:21.199Z,19.60
2022-11-10T23:53:08.781Z,19.60
2022-11-10T23:56:01.081Z,19.66
2022-11-10T23:58:48.826Z,19.50
